This is the latest recevied weather packets stored in our database for station/object 9M2ZEE-0. If no packets are shown the sender has not sent any weather packets the latest 10 day(s).
| Time | Temp. | Humidity | Pressure | Rain* | Wind** | Luminosity | Snow |
|---|---|---|---|---|---|---|---|
| 1787934018 | 28.89° C | 99% | 1012 hPa | - | - | 0 W/m² | - |
| 1787932195 | 27.22° C | 99% | 1012 hPa | - | - | 0 W/m² | - |
| 1787930372 | 27.78° C | 99% | 1012 hPa | - | - | 0 W/m² | - |
| 1787928549 | 28.33° C | 99% | 1012 hPa | - | - | 0 W/m² | - |
| 1787926726 | 28.89° C | 99% | 1012 hPa | - | - | 0 W/m² | - |
| 1787924904 | 28.89° C | 99% | 1011 hPa | - | - | 0 W/m² | - |
| 1787923081 | 29.44° C | 99% | 1011 hPa | - | - | 0 W/m² | - |
| 1787921257 | 30.56° C | 99% | 1010 hPa | - | - | 0 W/m² | - |
| 1787919434 | 30.56° C | 99% | 1010 hPa | - | - | 0 W/m² | - |
| 1787917610 | 32.22° C | 99% | 1010 hPa | - | - | 0 W/m² | - |
| 1787915786 | 32.22° C | 99% | 1009 hPa | - | - | 0 W/m² | - |
| 1787913961 | 32.78° C | 99% | 1008 hPa | - | - | 0 W/m² | - |
| 1787912136 | 35° C | 99% | 1008 hPa | - | - | 0 W/m² | - |
| 1787910312 | 34.44° C | 99% | 1008 hPa | - | - | 0 W/m² | - |
| 1787908489 | 36.11° C | 99% | 1008 hPa | - | - | 0 W/m² | - |
| 1787906666 | 34.44° C | 99% | 1008 hPa | - | - | 0 W/m² | - |
| 1787904842 | 36.67° C | 95% | 1008 hPa | - | - | 0 W/m² | - |
| 1787903021 | 35.56° C | 99% | 1008 hPa | - | - | 0 W/m² | - |
| 1787901198 | 36.11° C | 99% | 1008 hPa | - | - | 0 W/m² | - |
| 1787899377 | 33.89° C | 99% | 1009 hPa | - | - | 0 W/m² | - |
| 1787897555 | 37.22° C | 84% | 1010 hPa | - | - | 0 W/m² | - |
| 1787895835 | 36.11° C | 88% | 1010 hPa | - | - | 0 W/m² | - |
| 1787893910 | 36.11° C | 84% | 1010 hPa | - | - | 0 W/m² | - |
| 1787892087 | 35.56° C | 93% | 1011 hPa | - | - | 0 W/m² | - |
| 1787890265 | 35° C | 99% | 1011 hPa | - | - | 0 W/m² | - |
* Rain since midnight (hover to see other rain measurements)
** Current wind speed in m/s (hover to see current wind gust speed)